sensor_id;sensor_type;location;lat;lon;timestamp;P1;durP1;ratioP1;P2;durP2;ratioP2
57778;SDS011;43608;49.486;9.640;2022-12-10T00:00:25;12.00;;;8.55;;
57778;SDS011;43608;49.486;9.640;2022-12-10T00:01:03;13.40;;;9.52;;
57778;SDS011;43608;49.486;9.640;2022-12-10T00:01:35;13.35;;;9.32;;
57778;SDS011;43608;49.486;9.640;2022-12-10T00:02:05;12.55;;;9.23;;
57778;SDS011;43608;49.486;9.640;2022-12-10T00:02:36;14.10;;;9.27;;
57778;SDS011;43608;49.486;9.640;2022-12-10T00:03:06;13.60;;;9.35;;
57778;SDS011;43608;49.486;9.640;2022-12-10T00:03:36;12.30;;;8.43;;
57778;SDS011;43608;49.486;9.640;2022-12-10T00:04:07;12.30;;;8.85;;
57778;SDS011;43608;49.486;9.640;2022-12-10T00:04:38;11.27;;;8.40;;
57778;SDS011;43608;49.486;9.640;2022-12-10T00:05:08;13.30;;;9.60;;
57778;SDS011;43608;49.486;9.640;2022-12-10T00:05:38;12.90;;;9.32;;
57778;SDS011;43608;49.486;9.640;2022-12-10T00:06:19;13.30;;;9.52;;
57778;SDS011;43608;49.486;9.640;2022-12-10T00:06:51;12.98;;;9.13;;
57778;SDS011;43608;49.486;9.640;2022-12-10T00:07:21;12.80;;;9.30;;
57778;SDS011;43608;49.486;9.640;2022-12-10T00:07:51;14.27;;;9.73;;
57778;SDS011;43608;49.486;9.640;2022-12-10T00:08:22;11.60;;;8.98;;
57778;SDS011;43608;49.486;9.640;2022-12-10T00:08:52;13.43;;;9.13;;
57778;SDS011;43608;49.486;9.640;2022-12-10T00:09:23;13.20;;;9.25;;
57778;SDS011;43608;49.486;9.640;2022-12-10T00:09:53;12.18;;;8.75;;
57778;SDS011;43608;49.486;9.640;2022-12-10T00:10:24;12.43;;;9.40;;
57778;SDS011;43608;49.486;9.640;2022-12-10T00:10:54;12.63;;;9.25;;
57778;SDS011;43608;49.486;9.640;2022-12-10T00:11:25;14.38;;;9.80;;
57778;SDS011;43608;49.486;9.640;2022-12-10T00:11:56;14.00;;;9.82;;
57778;SDS011;43608;49.486;9.640;2022-12-10T00:12:26;13.88;;;10.38;;
57778;SDS011;43608;49.486;9.640;2022-12-10T00:12:56;14.10;;;10.02;;
57778;SDS011;43608;49.486;9.640;2022-12-10T00:13:27;14.90;;;10.50;;
57778;SDS011;43608;49.486;9.640;2022-12-10T00:13:58;16.67;;;11.02;;
57778;SDS011;43608;49.486;9.640;2022-12-10T00:14:29;14.20;;;10.13;;
57778;SDS011;43608;49.486;9.640;2022-12-10T00:14:59;12.27;;;9.50;;
57778;SDS011;43608;49.486;9.640;2022-12-10T00:15:30;14.90;;;9.70;;
57778;SDS011;43608;49.486;9.640;2022-12-10T00:16:01;15.13;;;10.00;;
57778;SDS011;43608;49.486;9.640;2022-12-10T00:16:33;11.77;;;9.27;;
57778;SDS011;43608;49.486;9.640;2022-12-10T00:17:04;12.50;;;8.73;;
57778;SDS011;43608;49.486;9.640;2022-12-10T00:17:34;13.02;;;9.27;;
57778;SDS011;43608;49.486;9.640;2022-12-10T00:18:04;12.82;;;9.35;;
57778;SDS011;43608;49.486;9.640;2022-12-10T00:18:35;12.73;;;9.38;;
57778;SDS011;43608;49.486;9.640;2022-12-10T00:19:06;12.45;;;8.65;;
57778;SDS011;43608;49.486;9.640;2022-12-10T00:19:37;12.30;;;8.65;;
57778;SDS011;43608;49.486;9.640;2022-12-10T00:20:07;11.90;;;8.68;;
57778;SDS011;43608;49.486;9.640;2022-12-10T00:20:38;10.82;;;8.60;;
57778;SDS011;43608;49.486;9.640;2022-12-10T00:21:11;12.25;;;8.27;;
57778;SDS011;43608;49.486;9.640;2022-12-10T00:21:43;11.07;;;8.27;;
57778;SDS011;43608;49.486;9.640;2022-12-10T00:22:15;12.77;;;9.10;;
57778;SDS011;43608;49.486;9.640;2022-12-10T00:22:45;11.00;;;8.45;;
57778;SDS011;43608;49.486;9.640;2022-12-10T00:23:16;12.55;;;8.65;;
57778;SDS011;43608;49.486;9.640;2022-12-10T00:23:46;10.95;;;8.07;;
57778;SDS011;43608;49.486;9.640;2022-12-10T00:24:17;10.98;;;8.32;;
57778;SDS011;43608;49.486;9.640;2022-12-10T00:24:47;11.32;;;7.82;;
57778;SDS011;43608;49.486;9.640;2022-12-10T00:25:17;10.75;;;8.13;;
57778;SDS011;43608;49.486;9.640;2022-12-10T00:25:48;11.50;;;7.95;;
57778;SDS011;43608;49.486;9.640;2022-12-10T00:26:22;10.93;;;7.88;;
57778;SDS011;43608;49.486;9.640;2022-12-10T00:26:53;10.23;;;7.70;;
57778;SDS011;43608;49.486;9.640;2022-12-10T00:27:23;10.38;;;7.72;;
57778;SDS011;43608;49.486;9.640;2022-12-10T00:27:53;10.35;;;7.50;;
57778;SDS011;43608;49.486;9.640;2022-12-10T00:28:24;10.95;;;7.47;;
57778;SDS011;43608;49.486;9.640;2022-12-10T00:28:55;10.20;;;7.35;;
57778;SDS011;43608;49.486;9.640;2022-12-10T00:29:25;10.75;;;8.00;;
57778;SDS011;43608;49.486;9.640;2022-12-10T00:29:56;10.30;;;7.40;;
57778;SDS011;43608;49.486;9.640;2022-12-10T00:30:26;10.85;;;7.63;;
57778;SDS011;43608;49.486;9.640;2022-12-10T00:31:00;11.70;;;8.40;;
57778;SDS011;43608;49.486;9.640;2022-12-10T00:31:34;10.60;;;7.85;;
57778;SDS011;43608;49.486;9.640;2022-12-10T00:32:05;11.85;;;8.35;;
57778;SDS011;43608;49.486;9.640;2022-12-10T00:32:36;10.70;;;8.13;;
57778;SDS011;43608;49.486;9.640;2022-12-10T00:33:06;11.25;;;8.68;;
57778;SDS011;43608;49.486;9.640;2022-12-10T00:33:37;11.65;;;8.43;;
57778;SDS011;43608;49.486;9.640;2022-12-10T00:34:08;12.02;;;8.50;;
57778;SDS011;43608;49.486;9.640;2022-12-10T00:34:39;11.05;;;7.97;;
57778;SDS011;43608;49.486;9.640;2022-12-10T00:35:10;11.85;;;8.85;;
57778;SDS011;43608;49.486;9.640;2022-12-10T00:35:40;11.68;;;8.50;;
57778;SDS011;43608;49.486;9.640;2022-12-10T00:36:21;11.77;;;8.10;;
57778;SDS011;43608;49.486;9.640;2022-12-10T00:36:53;11.80;;;8.15;;
57778;SDS011;43608;49.486;9.640;2022-12-10T00:37:24;11.05;;;8.13;;
57778;SDS011;43608;49.486;9.640;2022-12-10T00:37:54;12.60;;;8.70;;
57778;SDS011;43608;49.486;9.640;2022-12-10T00:38:24;12.13;;;8.60;;
57778;SDS011;43608;49.486;9.640;2022-12-10T00:38:55;11.95;;;8.55;;
57778;SDS011;43608;49.486;9.640;2022-12-10T00:39:26;11.80;;;8.63;;
57778;SDS011;43608;49.486;9.640;2022-12-10T00:39:56;11.95;;;8.45;;
57778;SDS011;43608;49.486;9.640;2022-12-10T00:40:27;10.15;;;7.55;;
57778;SDS011;43608;49.486;9.640;2022-12-10T00:40:58;10.32;;;7.63;;
57778;SDS011;43608;49.486;9.640;2022-12-10T00:41:28;10.23;;;8.05;;
57778;SDS011;43608;49.486;9.640;2022-12-10T00:41:59;11.93;;;8.25;;
57778;SDS011;43608;49.486;9.640;2022-12-10T00:42:29;10.88;;;7.90;;
57778;SDS011;43608;49.486;9.640;2022-12-10T00:43:00;10.60;;;7.47;;
57778;SDS011;43608;49.486;9.640;2022-12-10T00:43:30;10.32;;;7.13;;
57778;SDS011;43608;49.486;9.640;2022-12-10T00:44:01;11.05;;;7.93;;
57778;SDS011;43608;49.486;9.640;2022-12-10T00:44:31;10.90;;;7.72;;
57778;SDS011;43608;49.486;9.640;2022-12-10T00:45:01;11.25;;;7.57;;
57778;SDS011;43608;49.486;9.640;2022-12-10T00:45:33;10.05;;;7.43;;
57778;SDS011;43608;49.486;9.640;2022-12-10T00:46:03;10.98;;;7.60;;
57778;SDS011;43608;49.486;9.640;2022-12-10T00:46:34;10.02;;;7.28;;
57778;SDS011;43608;49.486;9.640;2022-12-10T00:47:04;10.23;;;7.32;;
57778;SDS011;43608;49.486;9.640;2022-12-10T00:47:35;10.25;;;7.57;;
57778;SDS011;43608;49.486;9.640;2022-12-10T00:48:05;9.18;;;7.15;;
57778;SDS011;43608;49.486;9.640;2022-12-10T00:48:36;9.63;;;7.10;;
57778;SDS011;43608;49.486;9.640;2022-12-10T00:49:06;10.60;;;7.80;;
57778;SDS011;43608;49.486;9.640;2022-12-10T00:49:36;10.50;;;7.68;;
57778;SDS011;43608;49.486;9.640;2022-12-10T00:50:07;8.75;;;7.00;;
57778;SDS011;43608;49.486;9.640;2022-12-10T00:50:37;11.82;;;7.53;;
57778;SDS011;43608;49.486;9.640;2022-12-10T00:51:09;10.15;;;7.57;;
57778;SDS011;43608;49.486;9.640;2022-12-10T00:51:42;11.90;;;8.27;;
57778;SDS011;43608;49.486;9.640;2022-12-10T00:52:12;13.65;;;8.60;;
57778;SDS011;43608;49.486;9.640;2022-12-10T00:52:42;15.60;;;9.20;;
57778;SDS011;43608;49.486;9.640;2022-12-10T00:53:13;14.13;;;9.10;;
57778;SDS011;43608;49.486;9.640;2022-12-10T00:53:44;14.32;;;9.20;;
57778;SDS011;43608;49.486;9.640;2022-12-10T00:54:15;13.00;;;8.75;;
57778;SDS011;43608;49.486;9.640;2022-12-10T00:54:46;13.70;;;9.02;;
57778;SDS011;43608;49.486;9.640;2022-12-10T00:55:16;12.23;;;8.55;;
57778;SDS011;43608;49.486;9.640;2022-12-10T00:55:47;12.20;;;8.52;;
57778;SDS011;43608;49.486;9.640;2022-12-10T00:56:18;13.15;;;8.48;;
57778;SDS011;43608;49.486;9.640;2022-12-10T00:56:50;12.00;;;8.02;;
57778;SDS011;43608;49.486;9.640;2022-12-10T00:57:21;11.57;;;8.15;;
57778;SDS011;43608;49.486;9.640;2022-12-10T00:57:51;12.30;;;8.00;;
57778;SDS011;43608;49.486;9.640;2022-12-10T00:58:22;12.65;;;8.15;;
57778;SDS011;43608;49.486;9.640;2022-12-10T00:58:53;11.00;;;8.18;;
57778;SDS011;43608;49.486;9.640;2022-12-10T00:59:24;11.10;;;7.80;;
57778;SDS011;43608;49.486;9.640;2022-12-10T00:59:54;11.88;;;8.15;;
57778;SDS011;43608;49.486;9.640;2022-12-10T01:00:25;11.63;;;7.75;;
57778;SDS011;43608;49.486;9.640;2022-12-10T01:01:05;10.55;;;7.68;;
57778;SDS011;43608;49.486;9.640;2022-12-10T01:01:44;10.98;;;7.32;;
57778;SDS011;43608;49.486;9.640;2022-12-10T01:02:14;10.45;;;7.07;;
57778;SDS011;43608;49.486;9.640;2022-12-10T01:02:45;10.88;;;7.57;;
57778;SDS011;43608;49.486;9.640;2022-12-10T01:03:15;12.18;;;8.75;;
57778;SDS011;43608;49.486;9.640;2022-12-10T01:03:46;12.65;;;8.13;;
57778;SDS011;43608;49.486;9.640;2022-12-10T01:04:18;13.07;;;8.55;;
57778;SDS011;43608;49.486;9.640;2022-12-10T01:04:51;11.45;;;8.35;;
57778;SDS011;43608;49.486;9.640;2022-12-10T01:05:22;11.80;;;8.45;;
57778;SDS011;43608;49.486;9.640;2022-12-10T01:05:54;13.20;;;8.93;;
57778;SDS011;43608;49.486;9.640;2022-12-10T01:06:26;12.57;;;8.70;;
57778;SDS011;43608;49.486;9.640;2022-12-10T01:06:58;12.75;;;8.23;;
57778;SDS011;43608;49.486;9.640;2022-12-10T01:07:29;10.73;;;7.97;;
57778;SDS011;43608;49.486;9.640;2022-12-10T01:08:00;11.98;;;8.75;;
57778;SDS011;43608;49.486;9.640;2022-12-10T01:08:30;12.45;;;8.80;;
57778;SDS011;43608;49.486;9.640;2022-12-10T01:09:01;12.60;;;8.65;;
57778;SDS011;43608;49.486;9.640;2022-12-10T01:09:35;12.02;;;8.35;;
57778;SDS011;43608;49.486;9.640;2022-12-10T01:10:05;11.80;;;8.57;;
57778;SDS011;43608;49.486;9.640;2022-12-10T01:10:36;11.48;;;8.43;;
57778;SDS011;43608;49.486;9.640;2022-12-10T01:11:06;12.43;;;9.13;;
57778;SDS011;43608;49.486;9.640;2022-12-10T01:11:38;11.65;;;8.48;;
57778;SDS011;43608;49.486;9.640;2022-12-10T01:12:10;11.95;;;8.90;;
57778;SDS011;43608;49.486;9.640;2022-12-10T01:12:40;12.75;;;8.38;;
57778;SDS011;43608;49.486;9.640;2022-12-10T01:13:10;12.13;;;8.15;;
57778;SDS011;43608;49.486;9.640;2022-12-10T01:13:41;11.77;;;8.68;;
57778;SDS011;43608;49.486;9.640;2022-12-10T01:14:14;11.40;;;8.25;;
57778;SDS011;43608;49.486;9.640;2022-12-10T01:14:51;12.65;;;9.23;;
57778;SDS011;43608;49.486;9.640;2022-12-10T01:15:21;13.13;;;9.25;;
57778;SDS011;43608;49.486;9.640;2022-12-10T01:15:51;12.52;;;9.05;;
57778;SDS011;43608;49.486;9.640;2022-12-10T01:16:22;14.88;;;9.70;;
57778;SDS011;43608;49.486;9.640;2022-12-10T01:16:55;14.18;;;9.50;;
57778;SDS011;43608;49.486;9.640;2022-12-10T01:17:27;12.93;;;9.30;;
57778;SDS011;43608;49.486;9.640;2022-12-10T01:17:57;13.20;;;9.57;;
57778;SDS011;43608;49.486;9.640;2022-12-10T01:18:27;12.45;;;8.98;;
57778;SDS011;43608;49.486;9.640;2022-12-10T01:18:58;12.75;;;9.35;;
57778;SDS011;43608;49.486;9.640;2022-12-10T01:19:30;13.38;;;9.75;;
57778;SDS011;43608;49.486;9.640;2022-12-10T01:20:02;14.68;;;9.52;;
57778;SDS011;43608;49.486;9.640;2022-12-10T01:20:34;12.00;;;8.90;;
57778;SDS011;43608;49.486;9.640;2022-12-10T01:21:08;11.13;;;8.60;;
57778;SDS011;43608;49.486;9.640;2022-12-10T01:21:41;11.65;;;8.43;;
57778;SDS011;43608;49.486;9.640;2022-12-10T01:22:11;12.57;;;8.93;;
57778;SDS011;43608;49.486;9.640;2022-12-10T01:22:41;11.40;;;8.20;;
57778;SDS011;43608;49.486;9.640;2022-12-10T01:23:12;11.65;;;8.55;;
57778;SDS011;43608;49.486;9.640;2022-12-10T01:23:44;13.07;;;8.90;;
57778;SDS011;43608;49.486;9.640;2022-12-10T01:24:23;12.35;;;8.50;;
57778;SDS011;43608;49.486;9.640;2022-12-10T01:24:54;11.77;;;8.25;;
57778;SDS011;43608;49.486;9.640;2022-12-10T01:25:25;11.68;;;8.13;;
57778;SDS011;43608;49.486;9.640;2022-12-10T01:25:58;10.63;;;7.80;;
57778;SDS011;43608;49.486;9.640;2022-12-10T01:26:30;10.77;;;7.95;;
57778;SDS011;43608;49.486;9.640;2022-12-10T01:27:02;10.38;;;7.53;;
57778;SDS011;43608;49.486;9.640;2022-12-10T01:27:33;10.35;;;7.45;;
57778;SDS011;43608;49.486;9.640;2022-12-10T01:28:03;11.05;;;8.23;;
57778;SDS011;43608;49.486;9.640;2022-12-10T01:28:34;9.52;;;6.63;;
57778;SDS011;43608;49.486;9.640;2022-12-10T01:29:06;10.98;;;7.40;;
57778;SDS011;43608;49.486;9.640;2022-12-10T01:29:37;9.57;;;7.07;;
57778;SDS011;43608;49.486;9.640;2022-12-10T01:30:07;10.68;;;7.78;;
57778;SDS011;43608;49.486;9.640;2022-12-10T01:30:38;9.73;;;6.93;;
57778;SDS011;43608;49.486;9.640;2022-12-10T01:31:13;9.88;;;7.35;;
57778;SDS011;43608;49.486;9.640;2022-12-10T01:31:47;9.57;;;7.05;;
57778;SDS011;43608;49.486;9.640;2022-12-10T01:32:21;9.48;;;6.85;;
57778;SDS011;43608;49.486;9.640;2022-12-10T01:32:51;8.57;;;6.57;;
57778;SDS011;43608;49.486;9.640;2022-12-10T01:33:22;9.32;;;6.70;;
57778;SDS011;43608;49.486;9.640;2022-12-10T01:33:52;8.75;;;6.75;;
57778;SDS011;43608;49.486;9.640;2022-12-10T01:34:23;9.88;;;6.90;;
57778;SDS011;43608;49.486;9.640;2022-12-10T01:34:54;10.70;;;7.53;;
57778;SDS011;43608;49.486;9.640;2022-12-10T01:35:25;10.40;;;7.82;;
57778;SDS011;43608;49.486;9.640;2022-12-10T01:35:55;10.15;;;7.65;;
57778;SDS011;43608;49.486;9.640;2022-12-10T01:36:30;10.60;;;7.85;;
57778;SDS011;43608;49.486;9.640;2022-12-10T01:37:02;10.55;;;7.47;;
57778;SDS011;43608;49.486;9.640;2022-12-10T01:37:33;10.77;;;7.53;;
57778;SDS011;43608;49.486;9.640;2022-12-10T01:38:03;10.10;;;7.25;;
57778;SDS011;43608;49.486;9.640;2022-12-10T01:38:34;10.95;;;7.60;;
57778;SDS011;43608;49.486;9.640;2022-12-10T01:39:06;10.02;;;7.25;;
57778;SDS011;43608;49.486;9.640;2022-12-10T01:39:38;9.30;;;7.00;;
57778;SDS011;43608;49.486;9.640;2022-12-10T01:40:09;9.40;;;6.82;;
57778;SDS011;43608;49.486;9.640;2022-12-10T01:40:40;9.75;;;6.95;;
57778;SDS011;43608;49.486;9.640;2022-12-10T01:41:14;8.75;;;6.47;;
57778;SDS011;43608;49.486;9.640;2022-12-10T01:41:49;8.85;;;6.60;;
57778;SDS011;43608;49.486;9.640;2022-12-10T01:42:24;8.73;;;6.20;;
57778;SDS011;43608;49.486;9.640;2022-12-10T01:42:54;8.38;;;6.22;;
57778;SDS011;43608;49.486;9.640;2022-12-10T01:43:24;9.82;;;6.65;;
57778;SDS011;43608;49.486;9.640;2022-12-10T01:43:59;8.98;;;6.57;;
57778;SDS011;43608;49.486;9.640;2022-12-10T01:44:56;8.50;;;5.90;;
57778;SDS011;43608;49.486;9.640;2022-12-10T01:45:27;9.02;;;6.47;;
57778;SDS011;43608;49.486;9.640;2022-12-10T01:45:58;8.65;;;6.40;;
57778;SDS011;43608;49.486;9.640;2022-12-10T01:46:29;8.30;;;6.35;;
57778;SDS011;43608;49.486;9.640;2022-12-10T01:47:04;8.95;;;6.40;;
57778;SDS011;43608;49.486;9.640;2022-12-10T01:47:35;9.43;;;6.85;;
57778;SDS011;43608;49.486;9.640;2022-12-10T01:48:05;8.20;;;6.07;;
57778;SDS011;43608;49.486;9.640;2022-12-10T01:48:36;9.27;;;6.72;;
57778;SDS011;43608;49.486;9.640;2022-12-10T01:49:20;8.60;;;6.72;;
57778;SDS011;43608;49.486;9.640;2022-12-10T01:49:55;8.73;;;6.32;;
57778;SDS011;43608;49.486;9.640;2022-12-10T01:50:27;9.15;;;6.63;;
57778;SDS011;43608;49.486;9.640;2022-12-10T01:50:57;9.40;;;6.50;;
57778;SDS011;43608;49.486;9.640;2022-12-10T01:51:29;9.55;;;6.75;;
57778;SDS011;43608;49.486;9.640;2022-12-10T01:52:02;9.13;;;6.35;;
57778;SDS011;43608;49.486;9.640;2022-12-10T01:52:35;10.02;;;7.05;;
57778;SDS011;43608;49.486;9.640;2022-12-10T01:53:05;9.43;;;6.43;;
57778;SDS011;43608;49.486;9.640;2022-12-10T01:53:37;8.27;;;5.97;;
57778;SDS011;43608;49.486;9.640;2022-12-10T01:54:08;9.00;;;6.25;;
57778;SDS011;43608;49.486;9.640;2022-12-10T01:54:43;8.52;;;6.50;;
57778;SDS011;43608;49.486;9.640;2022-12-10T01:56:10;9.32;;;6.47;;
57778;SDS011;43608;49.486;9.640;2022-12-10T01:56:42;9.75;;;6.63;;
57778;SDS011;43608;49.486;9.640;2022-12-10T01:58:03;9.40;;;6.22;;
57778;SDS011;43608;49.486;9.640;2022-12-10T01:58:33;8.88;;;6.22;;
57778;SDS011;43608;49.486;9.640;2022-12-10T01:59:04;9.50;;;6.60;;
57778;SDS011;43608;49.486;9.640;2022-12-10T01:59:35;9.25;;;6.50;;
57778;SDS011;43608;49.486;9.640;2022-12-10T02:00:07;8.25;;;6.30;;
57778;SDS011;43608;49.486;9.640;2022-12-10T02:00:42;9.10;;;6.43;;
57778;SDS011;43608;49.486;9.640;2022-12-10T02:01:22;8.40;;;6.03;;
57778;SDS011;43608;49.486;9.640;2022-12-10T02:02:53;8.65;;;6.30;;
57778;SDS011;43608;49.486;9.640;2022-12-10T02:03:39;8.25;;;5.97;;
57778;SDS011;43608;49.486;9.640;2022-12-10T02:04:29;8.65;;;5.95;;
57778;SDS011;43608;49.486;9.640;2022-12-10T02:06:14;9.10;;;6.43;;
57778;SDS011;43608;49.486;9.640;2022-12-10T02:07:04;9.30;;;6.55;;
57778;SDS011;43608;49.486;9.640;2022-12-10T02:08:18;9.52;;;7.00;;
57778;SDS011;43608;49.486;9.640;2022-12-10T02:10:28;10.32;;;7.22;;
57778;SDS011;43608;49.486;9.640;2022-12-10T02:11:24;10.98;;;6.97;;
57778;SDS011;43608;49.486;9.640;2022-12-10T02:12:57;9.73;;;6.93;;
57778;SDS011;43608;49.486;9.640;2022-12-10T02:13:41;9.65;;;6.88;;
57778;SDS011;43608;49.486;9.640;2022-12-10T02:14:17;8.75;;;6.50;;
57778;SDS011;43608;49.486;9.640;2022-12-10T02:15:13;9.40;;;6.50;;
57778;SDS011;43608;49.486;9.640;2022-12-10T02:15:48;8.75;;;6.32;;
57778;SDS011;43608;49.486;9.640;2022-12-10T02:16:29;10.52;;;6.95;;
57778;SDS011;43608;49.486;9.640;2022-12-10T02:17:17;8.93;;;6.70;;
57778;SDS011;43608;49.486;9.640;2022-12-10T02:18:05;8.77;;;6.38;;
57778;SDS011;43608;49.486;9.640;2022-12-10T02:18:53;8.77;;;6.47;;
57778;SDS011;43608;49.486;9.640;2022-12-10T02:20:24;9.93;;;6.75;;
57778;SDS011;43608;49.486;9.640;2022-12-10T02:21:06;8.43;;;6.00;;
57778;SDS011;43608;49.486;9.640;2022-12-10T02:21:42;9.73;;;6.25;;
57778;SDS011;43608;49.486;9.640;2022-12-10T02:22:15;9.60;;;6.22;;
57778;SDS011;43608;49.486;9.640;2022-12-10T02:22:57;8.20;;;5.88;;
57778;SDS011;43608;49.486;9.640;2022-12-10T02:23:35;9.93;;;6.43;;
57778;SDS011;43608;49.486;9.640;2022-12-10T02:24:11;8.57;;;6.20;;
57778;SDS011;43608;49.486;9.640;2022-12-10T02:24:44;10.20;;;6.38;;
57778;SDS011;43608;49.486;9.640;2022-12-10T02:25:19;8.73;;;6.60;;
57778;SDS011;43608;49.486;9.640;2022-12-10T02:25:54;8.65;;;6.38;;
57778;SDS011;43608;49.486;9.640;2022-12-10T02:26:41;8.82;;;6.22;;
57778;SDS011;43608;49.486;9.640;2022-12-10T02:29:23;7.43;;;5.78;;
57778;SDS011;43608;49.486;9.640;2022-12-10T02:29:56;9.02;;;6.38;;
57778;SDS011;43608;49.486;9.640;2022-12-10T02:30:30;9.05;;;6.43;;
57778;SDS011;43608;49.486;9.640;2022-12-10T02:31:03;9.13;;;6.80;;
57778;SDS011;43608;49.486;9.640;2022-12-10T02:31:35;9.15;;;6.53;;
57778;SDS011;43608;49.486;9.640;2022-12-10T02:32:12;9.40;;;6.68;;
57778;SDS011;43608;49.486;9.640;2022-12-10T02:32:48;9.00;;;6.40;;
57778;SDS011;43608;49.486;9.640;2022-12-10T02:33:20;8.75;;;6.40;;
57778;SDS011;43608;49.486;9.640;2022-12-10T02:33:55;9.48;;;6.82;;
57778;SDS011;43608;49.486;9.640;2022-12-10T02:34:28;8.55;;;6.30;;
57778;SDS011;43608;49.486;9.640;2022-12-10T02:35:04;8.98;;;6.65;;
57778;SDS011;43608;49.486;9.640;2022-12-10T02:35:39;8.68;;;6.55;;
57778;SDS011;43608;49.486;9.640;2022-12-10T02:36:12;9.07;;;6.80;;
57778;SDS011;43608;49.486;9.640;2022-12-10T02:36:46;9.32;;;6.57;;
57778;SDS011;43608;49.486;9.640;2022-12-10T02:37:29;9.75;;;6.85;;
57778;SDS011;43608;49.486;9.640;2022-12-10T02:38:03;9.00;;;6.65;;
57778;SDS011;43608;49.486;9.640;2022-12-10T02:38:39;8.43;;;6.45;;
57778;SDS011;43608;49.486;9.640;2022-12-10T02:39:12;10.13;;;7.18;;
57778;SDS011;43608;49.486;9.640;2022-12-10T02:39:48;10.30;;;6.95;;
57778;SDS011;43608;49.486;9.640;2022-12-10T02:40:24;8.80;;;6.60;;
57778;SDS011;43608;49.486;9.640;2022-12-10T02:41:02;8.60;;;6.68;;
57778;SDS011;43608;49.486;9.640;2022-12-10T02:41:37;9.45;;;6.97;;
57778;SDS011;43608;49.486;9.640;2022-12-10T02:42:12;9.27;;;6.72;;
57778;SDS011;43608;49.486;9.640;2022-12-10T02:42:46;9.38;;;6.35;;
57778;SDS011;43608;49.486;9.640;2022-12-10T02:43:19;9.40;;;7.25;;
57778;SDS011;43608;49.486;9.640;2022-12-10T02:43:53;8.75;;;6.60;;
57778;SDS011;43608;49.486;9.640;2022-12-10T02:44:27;9.77;;;7.20;;
57778;SDS011;43608;49.486;9.640;2022-12-10T02:44:58;8.90;;;6.70;;
57778;SDS011;43608;49.486;9.640;2022-12-10T02:45:30;9.40;;;7.07;;
57778;SDS011;43608;49.486;9.640;2022-12-10T02:46:02;9.77;;;6.70;;
57778;SDS011;43608;49.486;9.640;2022-12-10T02:46:34;8.38;;;6.53;;
57778;SDS011;43608;49.486;9.640;2022-12-10T02:47:08;9.25;;;6.53;;
57778;SDS011;43608;49.486;9.640;2022-12-10T02:47:40;8.88;;;6.68;;
57778;SDS011;43608;49.486;9.640;2022-12-10T02:48:11;9.13;;;6.40;;
57778;SDS011;43608;49.486;9.640;2022-12-10T02:48:43;9.00;;;6.60;;
57778;SDS011;43608;49.486;9.640;2022-12-10T02:49:16;10.02;;;7.18;;
57778;SDS011;43608;49.486;9.640;2022-12-10T02:49:49;8.57;;;6.40;;
57778;SDS011;43608;49.486;9.640;2022-12-10T02:50:23;9.52;;;6.90;;
57778;SDS011;43608;49.486;9.640;2022-12-10T02:50:54;9.18;;;7.07;;
57778;SDS011;43608;49.486;9.640;2022-12-10T02:51:24;8.85;;;6.65;;
57778;SDS011;43608;49.486;9.640;2022-12-10T02:51:55;9.45;;;6.90;;
57778;SDS011;43608;49.486;9.640;2022-12-10T02:52:25;9.02;;;6.82;;
57778;SDS011;43608;49.486;9.640;2022-12-10T02:52:55;8.65;;;6.80;;
57778;SDS011;43608;49.486;9.640;2022-12-10T02:53:26;9.23;;;7.25;;
57778;SDS011;43608;49.486;9.640;2022-12-10T02:54:03;9.32;;;6.82;;
57778;SDS011;43608;49.486;9.640;2022-12-10T02:54:41;9.43;;;6.88;;
57778;SDS011;43608;49.486;9.640;2022-12-10T02:55:13;9.35;;;6.88;;
57778;SDS011;43608;49.486;9.640;2022-12-10T02:56:23;10.38;;;7.18;;
57778;SDS011;43608;49.486;9.640;2022-12-10T02:56:58;9.70;;;6.65;;
57778;SDS011;43608;49.486;9.640;2022-12-10T02:59:47;8.65;;;6.60;;
57778;SDS011;43608;49.486;9.640;2022-12-10T03:00:24;8.25;;;6.18;;
57778;SDS011;43608;49.486;9.640;2022-12-10T03:02:01;8.48;;;6.28;;
57778;SDS011;43608;49.486;9.640;2022-12-10T03:03:45;9.02;;;5.93;;
57778;SDS011;43608;49.486;9.640;2022-12-10T03:04:24;9.00;;;6.28;;
57778;SDS011;43608;49.486;9.640;2022-12-10T03:07:01;11.13;;;6.75;;
57778;SDS011;43608;49.486;9.640;2022-12-10T03:07:38;9.95;;;6.78;;
57778;SDS011;43608;49.486;9.640;2022-12-10T03:08:28;9.52;;;6.50;;
57778;SDS011;43608;49.486;9.640;2022-12-10T03:09:05;8.98;;;6.68;;
57778;SDS011;43608;49.486;9.640;2022-12-10T03:09:52;9.32;;;6.93;;
57778;SDS011;43608;49.486;9.640;2022-12-10T03:10:33;9.70;;;6.80;;
57778;SDS011;43608;49.486;9.640;2022-12-10T03:11:43;9.73;;;7.15;;
57778;SDS011;43608;49.486;9.640;2022-12-10T03:12:17;9.52;;;7.05;;
57778;SDS011;43608;49.486;9.640;2022-12-10T03:12:59;10.07;;;6.82;;
57778;SDS011;43608;49.486;9.640;2022-12-10T03:14:24;10.20;;;7.20;;
57778;SDS011;43608;49.486;9.640;2022-12-10T03:14:58;9.80;;;7.25;;
57778;SDS011;43608;49.486;9.640;2022-12-10T03:15:33;11.70;;;8.23;;
57778;SDS011;43608;49.486;9.640;2022-12-10T03:16:07;11.02;;;7.85;;
57778;SDS011;43608;49.486;9.640;2022-12-10T03:16:44;10.73;;;8.02;;
57778;SDS011;43608;49.486;9.640;2022-12-10T03:17:19;12.20;;;8.23;;
57778;SDS011;43608;49.486;9.640;2022-12-10T03:17:50;10.80;;;8.15;;
57778;SDS011;43608;49.486;9.640;2022-12-10T03:18:23;10.45;;;7.80;;
57778;SDS011;43608;49.486;9.640;2022-12-10T03:18:57;10.80;;;8.13;;
57778;SDS011;43608;49.486;9.640;2022-12-10T03:19:34;10.18;;;7.70;;
57778;SDS011;43608;49.486;9.640;2022-12-10T03:20:07;10.60;;;7.35;;
57778;SDS011;43608;49.486;9.640;2022-12-10T03:20:42;10.45;;;7.85;;
57778;SDS011;43608;49.486;9.640;2022-12-10T03:21:15;10.60;;;7.93;;
57778;SDS011;43608;49.486;9.640;2022-12-10T03:21:46;10.27;;;7.43;;
57778;SDS011;43608;49.486;9.640;2022-12-10T03:22:19;9.32;;;7.38;;
57778;SDS011;43608;49.486;9.640;2022-12-10T03:22:50;10.82;;;7.82;;
57778;SDS011;43608;49.486;9.640;2022-12-10T03:23:21;10.00;;;7.68;;
57778;SDS011;43608;49.486;9.640;2022-12-10T03:23:53;10.55;;;7.80;;
57778;SDS011;43608;49.486;9.640;2022-12-10T03:24:23;10.23;;;7.55;;
57778;SDS011;43608;49.486;9.640;2022-12-10T03:24:57;10.90;;;7.75;;
57778;SDS011;43608;49.486;9.640;2022-12-10T03:25:29;9.95;;;7.50;;
57778;SDS011;43608;49.486;9.640;2022-12-10T03:26:00;10.65;;;7.57;;
57778;SDS011;43608;49.486;9.640;2022-12-10T03:26:33;10.52;;;7.85;;
57778;SDS011;43608;49.486;9.640;2022-12-10T03:27:04;10.02;;;7.30;;
57778;SDS011;43608;49.486;9.640;2022-12-10T03:27:38;10.52;;;7.90;;
57778;SDS011;43608;49.486;9.640;2022-12-10T03:28:11;10.85;;;8.10;;
57778;SDS011;43608;49.486;9.640;2022-12-10T03:28:47;11.30;;;8.07;;
57778;SDS011;43608;49.486;9.640;2022-12-10T03:29:22;11.88;;;7.75;;
57778;SDS011;43608;49.486;9.640;2022-12-10T03:29:57;10.38;;;7.28;;
57778;SDS011;43608;49.486;9.640;2022-12-10T03:30:30;11.15;;;7.53;;
57778;SDS011;43608;49.486;9.640;2022-12-10T03:31:02;10.73;;;7.82;;
57778;SDS011;43608;49.486;9.640;2022-12-10T03:31:33;10.00;;;7.15;;
57778;SDS011;43608;49.486;9.640;2022-12-10T03:32:05;9.45;;;7.13;;
57778;SDS011;43608;49.486;9.640;2022-12-10T03:32:36;9.77;;;7.30;;
57778;SDS011;43608;49.486;9.640;2022-12-10T03:33:07;10.45;;;7.60;;
57778;SDS011;43608;49.486;9.640;2022-12-10T03:33:38;10.13;;;7.20;;
57778;SDS011;43608;49.486;9.640;2022-12-10T03:34:10;9.35;;;6.85;;
57778;SDS011;43608;49.486;9.640;2022-12-10T03:34:41;9.40;;;7.10;;
57778;SDS011;43608;49.486;9.640;2022-12-10T03:35:13;10.85;;;7.20;;
57778;SDS011;43608;49.486;9.640;2022-12-10T03:35:45;9.48;;;7.15;;